Webcam Rollhalt 06

Webcam Rollhalt 24

 

Flugplatz - Wetter - Augsburg

[Quelle: ADDS]
METAR
EDMA 310450Z 23006KT CAVOK 17/15 Q1013 =
TAF
SR / SS: 03:52 / 18:56 UTC (Augsburg 2021-07-31)

Flugplatz - Wetter - Laupheim

[Quelle: ADDS]
METAR
ETHL 310420Z AUTO 24005KT 9000 // ////// 16/15 Q1013 /// =
TAF
SR / SS: 03:56 / 18:59 UTC (Laupheim 2021-07-31)

Flugplatz - Wetter - Memmingen

[Quelle: ADDS]
METAR
EDJA 310350Z 23007KT CAVOK 16/15 Q1013 =
TAF
SR / SS: 03:56 / 18:55 UTC (Memmingen 2021-07-31)

Flugplatz - Wetter - Neuburg/Donau

[Quelle: ADDS]
METAR
ETSN 310420Z 21001KT 9999 FEW015 SCT090 17/15 Q1012 BLU+ =
ETSN 310125Z 3102/3111 24005KT 9999 NSW FEW050 BKN250 PROB30 3102/3108 25012G22KT 5000 -SHRA SCT015 BKN030TCU BY ETGL
TAF
ETSN 310125Z 3102/3111 24005KT 9999 NSW FEW050 BKN250 PROB30 3102/3108 25012G22KT 5000 -SHRA SCT015 BKN030TCU BY ETGL =
SR / SS: 03:49 / 18:54 UTC (Neuburg 2021-07-31)

Flugplatz - Wetter - Stuttgart

[Quelle: ADDS]
METAR
EDDS 310450Z VRB01KT 9999 FEW017 16/11 Q1013 NOSIG =
EDDS 302300Z 3100/3124 23003KT 9999 FEW040 BECMG 3109/3111 25008KT BECMG 3117/3119 29003KT
TAF
EDDS 302300Z 3100/3124 23003KT 9999 FEW040 BECMG 3109/3111 25008KT BECMG 3117/3119 29003KT =
SR / SS: 03:57 / 19:02 UTC (Stuttgart 2021-07-31)

Flugplatz - Wetter - Niederstetten

[Quelle: ADDS]
METAR
ETHN 310420Z 23006KT 9999 FEW050 14/11 Q1012 BLU+ =
TAF
SR / SS: 03:52 / 19:03 UTC (Niederstetten 2021-07-31)